Time;durP1;ratioP1;P1;durP2;ratioP2;P2;SDS_P1;SDS_P2;PMS_P1;PMS_P2;Temp;Humidity;BMP_temperature;BMP_pressure;BME280_temperature;BME280_humidity;BME280_pressure;Samples;Min_cycle;Max_cycle;Signal;HPM_P1;HPM_P2
2022/11/29 00:01:41;;;;;;;0.10;0.10;;;3.90;99.90;2.60;96781.00;;;;5033511;28;20203;-73
2022/11/29 00:04:10;;;;;;;0.10;0.10;;;3.80;99.90;2.60;96769.00;;;;5033554;28;20238;-74
2022/11/29 00:06:40;;;;;;;0.10;0.10;;;3.90;99.90;2.60;96774.00;;;;5033517;28;20195;-76
2022/11/29 00:09:12;;;;;;;0.10;0.10;;;3.90;99.90;2.60;96766.00;;;;5033048;28;20674;-73
2022/11/29 00:14:28;;;;;;;0.05;0.05;;;3.80;99.90;2.60;96765.00;;;;5033133;28;20234;-73
2022/11/29 00:17:00;;;;;;;0.10;0.10;;;3.90;99.90;2.60;96754.00;;;;5032992;28;20199;-74
2022/11/29 00:19:29;;;;;;;0.10;0.10;;;3.90;99.90;2.60;96707.00;;;;5033346;28;20195;-76
2022/11/29 00:21:59;;;;;;;0.10;0.10;;;3.80;99.90;2.60;96743.00;;;;5032115;28;20199;-73
2022/11/29 00:24:30;;;;;;;0.10;0.10;;;3.90;99.90;2.60;96763.00;;;;5032681;28;20277;-72
2022/11/29 00:26:59;;;;;;;0.10;0.10;;;3.90;99.90;2.60;96725.00;;;;5035246;28;20531;-73
2022/11/29 00:29:29;;;;;;;0.10;0.10;;;3.90;99.90;2.70;96724.00;;;;5045082;28;20260;-73
2022/11/29 00:31:57;;;;;;;0.10;0.10;;;3.90;99.90;2.70;96722.00;;;;5020619;28;20250;-73
2022/11/29 00:34:25;;;;;;;0.10;0.10;;;3.90;99.90;2.70;96720.00;;;;5032593;28;20215;-73
2022/11/29 00:36:53;;;;;;;0.10;0.10;;;4.00;99.90;2.70;96730.00;;;;5031944;28;20268;-73
2022/11/29 00:39:23;;;;;;;0.10;0.10;;;3.90;99.90;2.70;96756.00;;;;5033128;28;20547;-74
2022/11/29 00:41:52;;;;;;;0.10;0.10;;;3.90;99.90;2.60;96751.00;;;;5032245;28;20195;-73
2022/11/29 00:44:20;;;;;;;0.10;0.10;;;3.90;99.90;2.60;96714.00;;;;5032806;28;20218;-74
2022/11/29 00:46:49;;;;;;;0.10;0.10;;;3.90;99.90;2.60;96733.00;;;;5044299;28;20207;-73
2022/11/29 00:49:17;;;;;;;0.10;0.10;;;3.90;99.90;2.60;96764.00;;;;5032680;28;20206;-73
2022/11/29 00:51:45;;;;;;;0.10;0.10;;;3.90;99.90;2.60;96741.00;;;;5031881;28;20671;-73
2022/11/29 00:54:13;;;;;;;0.10;0.10;;;3.90;99.90;2.60;96740.00;;;;5031628;28;20223;-73
2022/11/29 00:56:43;;;;;;;0.10;0.10;;;3.90;99.90;2.60;96762.00;;;;5032248;28;20195;-73
2022/11/29 00:59:11;;;;;;;0.10;0.10;;;3.90;99.90;2.70;96755.00;;;;5032394;28;20253;-73
2022/11/29 01:01:39;;;;;;;0.10;0.10;;;4.00;99.90;2.70;96759.00;;;;5023137;28;20265;-74
2022/11/29 01:04:08;;;;;;;0.10;0.10;;;3.90;99.90;2.70;96757.00;;;;5031908;28;20226;-73
2022/11/29 01:06:36;;;;;;;0.10;0.10;;;4.00;99.90;2.70;96750.00;;;;5031779;28;20194;-74
2022/11/29 01:09:04;;;;;;;0.10;0.10;;;3.90;99.90;2.60;96748.00;;;;5031940;28;20732;-75
2022/11/29 01:11:32;;;;;;;0.10;0.10;;;3.90;99.90;2.60;96760.00;;;;5030103;28;20199;-75
2022/11/29 01:14:04;;;;;;;0.10;0.10;;;3.90;99.90;2.60;96679.00;;;;5032959;28;20630;-75
2022/11/29 01:16:32;;;;;;;0.10;0.10;;;3.90;99.90;2.60;96755.00;;;;5032696;28;20748;-73
2022/11/29 01:19:01;;;;;;;0.10;0.10;;;3.90;99.90;2.60;96764.00;;;;5033060;28;20190;-73
2022/11/29 01:21:29;;;;;;;0.10;0.10;;;3.90;99.90;2.70;96703.00;;;;5026194;28;20200;-73
2022/11/29 01:23:59;;;;;;;0.10;0.10;;;3.90;99.90;2.70;96771.00;;;;5031888;28;20222;-75
2022/11/29 01:26:30;;;;;;;0.10;0.10;;;3.90;99.90;2.70;96774.00;;;;5031619;28;20195;-72
2022/11/29 01:28:59;;;;;;;0.10;0.10;;;3.90;99.90;2.60;96747.00;;;;5031721;28;20229;-72
2022/11/29 01:31:32;;;;;;;0.10;0.10;;;3.90;99.90;2.60;96756.00;;;;5032058;28;20764;-72
2022/11/29 01:34:02;;;;;;;0.10;0.10;;;3.90;99.90;2.60;96746.00;;;;5030381;28;20211;-73
2022/11/29 01:36:31;;;;;;;0.10;0.10;;;3.90;99.90;2.70;96747.00;;;;5030083;28;20199;-75
2022/11/29 01:39:00;;;;;;;0.10;0.10;;;3.90;99.90;2.60;96717.00;;;;5030402;28;20674;-73
2022/11/29 01:41:31;;;;;;;0.10;0.10;;;3.90;99.90;2.70;96732.00;;;;5031282;28;20265;-74
2022/11/29 01:44:04;;;;;;;0.10;0.10;;;4.00;99.90;2.70;96733.00;;;;5031530;28;20772;-74
2022/11/29 01:46:37;;;;;;;0.10;0.10;;;3.90;99.90;2.60;96745.00;;;;5031725;28;20226;-74
2022/11/29 01:49:11;;;;;;;0.10;0.10;;;3.90;99.90;2.60;96733.00;;;;5031540;28;20196;-74
2022/11/29 01:51:52;;;;;;;0.10;0.10;;;3.90;99.90;2.60;96734.00;;;;5031408;28;20267;-74
2022/11/29 01:54:22;;;;;;;0.10;0.10;;;3.90;99.90;2.60;96741.00;;;;5049024;28;20628;-74
2022/11/29 01:56:52;;;;;;;0.10;0.10;;;3.90;99.90;2.60;96729.00;;;;5025528;28;20191;-72
2022/11/29 01:59:24;;;;;;;0.10;0.10;;;3.90;99.90;2.60;96747.00;;;;5038609;28;20240;-71
2022/11/29 02:01:58;;;;;;;0.10;0.10;;;3.90;99.90;2.60;96733.00;;;;5031639;28;20253;-72
2022/11/29 02:04:27;;;;;;;0.10;0.10;;;3.90;99.90;2.60;96745.00;;;;5018673;28;20223;-71
2022/11/29 02:06:55;;;;;;;0.10;0.10;;;3.80;99.90;2.60;96760.00;;;;5031105;28;20187;-71
2022/11/29 02:09:24;;;;;;;0.10;0.10;;;3.80;99.90;2.60;96761.00;;;;5031293;28;20591;-71
2022/11/29 02:12:12;;;;;;;0.10;0.10;;;3.90;99.90;2.60;96772.00;;;;5031155;28;20245;-72
2022/11/29 02:15:06;;;;;;;0.08;0.08;;;3.90;99.90;2.70;96720.00;;;;5029994;28;20682;-72
2022/11/29 02:17:52;;;;;;;0.00;0.00;;;3.90;99.90;2.70;96757.00;;;;5031420;28;20214;-72
2022/11/29 02:21:03;;;;;;;0.10;0.10;;;4.00;99.90;2.70;96757.00;;;;5033628;28;20666;-72
2022/11/29 02:24:00;;;;;;;0.10;0.10;;;3.90;99.90;2.70;96760.00;;;;5033586;28;20214;-71
2022/11/29 02:27:14;;;;;;;0.10;0.10;;;3.90;99.90;2.60;96762.00;;;;5035118;28;20227;-71
2022/11/29 02:30:20;;;;;;;0.10;0.10;;;3.90;99.90;2.60;96716.00;;;;5009469;28;20230;-72
2022/11/29 02:33:15;;;;;;;0.10;0.10;;;3.90;99.90;2.60;96732.00;;;;5030290;28;20198;-72
2022/11/29 02:36:18;;;;;;;0.10;0.10;;;3.90;99.90;2.60;96747.00;;;;5034515;28;20210;-71
2022/11/29 02:39:41;;;;;;;0.10;0.10;;;3.90;99.90;2.70;96759.00;;;;5029396;28;20257;-72
2022/11/29 02:42:48;;;;;;;0.10;0.10;;;3.90;99.90;2.60;96744.00;;;;5025228;28;20285;-71
2022/11/29 02:45:46;;;;;;;0.10;0.10;;;3.90;99.90;2.60;96729.00;;;;5048930;28;20242;-72
2022/11/29 02:48:37;;;;;;;0.10;0.10;;;3.90;99.90;2.50;96758.00;;;;5035119;28;20216;-72
2022/11/29 02:51:13;;;;;;;0.10;0.10;;;3.90;99.90;2.70;96734.00;;;;5024288;28;20607;-71
2022/11/29 02:53:51;;;;;;;0.10;0.10;;;3.90;99.90;2.70;96760.00;;;;5033808;28;20219;-72
2022/11/29 02:56:31;;;;;;;0.05;0.05;;;3.90;99.90;2.60;96753.00;;;;5036765;28;20211;-72
2022/11/29 02:59:09;;;;;;;0.10;0.10;;;3.90;99.90;2.60;96673.00;;;;5038552;28;20249;-72
2022/11/29 03:01:50;;;;;;;0.00;0.00;;;3.90;99.90;2.60;96735.00;;;;5036714;28;20261;-71
2022/11/29 03:04:31;;;;;;;0.10;0.10;;;3.90;99.90;2.60;96760.00;;;;5034354;28;20250;-72
2022/11/29 03:07:09;;;;;;;0.10;0.10;;;3.90;99.90;2.70;96746.00;;;;5022390;28;20222;-72
2022/11/29 03:09:44;;;;;;;0.10;0.10;;;4.00;99.90;2.70;96748.00;;;;5033913;28;20260;-72
2022/11/29 03:12:25;;;;;;;0.10;0.10;;;3.90;99.90;2.60;96743.00;;;;5033504;28;20186;-71
2022/11/29 03:15:11;;;;;;;0.10;0.10;;;3.90;99.90;2.70;96759.00;;;;5029749;28;20710;-71
2022/11/29 03:18:00;;;;;;;0.10;0.10;;;3.90;99.90;2.70;96776.00;;;;5034109;28;20199;-71
2022/11/29 03:20:41;;;;;;;0.10;0.10;;;3.90;99.90;2.60;96720.00;;;;5032672;28;20199;-72
2022/11/29 03:23:20;;;;;;;0.10;0.10;;;4.00;99.90;2.70;96731.00;;;;5034185;28;20344;-71
2022/11/29 03:25:59;;;;;;;0.10;0.10;;;4.00;99.90;2.70;96745.00;;;;5023587;28;20211;-72
2022/11/29 03:28:32;;;;;;;0.10;0.10;;;4.00;99.90;2.70;96767.00;;;;5034084;28;20619;-72
2022/11/29 03:31:13;;;;;;;0.10;0.10;;;4.00;99.90;2.80;96748.00;;;;5034619;28;20199;-72
2022/11/29 03:33:57;;;;;;;0.10;0.10;;;4.00;99.90;2.80;96734.00;;;;5046679;28;20211;-73
2022/11/29 03:36:39;;;;;;;0.10;0.10;;;4.00;99.90;2.70;96728.00;;;;5034164;28;20567;-72
2022/11/29 03:39:17;;;;;;;0.10;0.10;;;4.00;99.90;2.80;96740.00;;;;5032409;28;20191;-72
2022/11/29 03:41:55;;;;;;;0.10;0.10;;;4.10;99.90;2.80;96755.00;;;;5039918;28;20457;-72
2022/11/29 03:44:31;;;;;;;0.10;0.10;;;4.10;99.90;2.80;96742.00;;;;5033624;28;20223;-72
2022/11/29 03:47:06;;;;;;;0.10;0.10;;;4.10;99.90;2.80;96734.00;;;;5033806;28;20225;-72
2022/11/29 03:49:43;;;;;;;0.10;0.10;;;4.10;99.90;2.80;96729.00;;;;5033384;28;20610;-73
2022/11/29 03:52:22;;;;;;;0.10;0.10;;;4.10;99.90;2.80;96749.00;;;;5033801;28;20678;-72
2022/11/29 03:55:05;;;;;;;0.05;0.05;;;4.00;99.90;2.80;96773.00;;;;5032103;28;20211;-72
2022/11/29 03:57:48;;;;;;;0.10;0.10;;;4.00;99.90;2.80;96742.00;;;;5031911;28;20203;-71
2022/11/29 04:00:18;;;;;;;0.10;0.10;;;4.00;99.90;2.80;96734.00;;;;5032842;28;20260;-72
2022/11/29 04:03:30;;;;;;;0.10;0.10;;;4.00;99.90;2.80;96763.00;;;;5032437;28;20207;-71
2022/11/29 04:06:20;;;;;;;0.10;0.10;;;4.00;99.90;2.80;96751.00;;;;5028362;28;20227;-72
2022/11/29 04:09:38;;;;;;;0.10;0.10;;;4.10;99.90;2.80;96732.00;;;;5033779;28;20198;-72
2022/11/29 04:12:53;;;;;;;0.10;0.10;;;4.10;99.90;2.80;96769.00;;;;5045215;28;20195;-72
2022/11/29 04:16:10;;;;;;;0.10;0.10;;;4.10;99.90;2.90;96706.00;;;;5030391;28;20268;-72
2022/11/29 04:19:15;;;;;;;0.10;0.10;;;4.20;99.90;2.90;96767.00;;;;5021466;28;20204;-72
2022/11/29 04:22:42;;;;;;;0.10;0.10;;;4.20;99.90;2.80;96773.00;;;;5028561;28;20187;-72
2022/11/29 04:25:39;;;;;;;0.10;0.10;;;4.10;99.90;2.80;96761.00;;;;5024488;28;20211;-72
2022/11/29 04:29:06;;;;;;;0.10;0.10;;;4.10;99.90;2.80;96762.00;;;;5032936;28;20654;-72
2022/11/29 04:31:54;;;;;;;0.10;0.10;;;4.10;99.90;2.80;96755.00;;;;5013293;28;20196;-72
2022/11/29 04:35:12;;;;;;;0.10;0.10;;;4.10;99.90;2.80;96748.00;;;;5027982;28;20219;-71
2022/11/29 04:38:30;;;;;;;0.10;0.10;;;4.10;99.90;2.80;96748.00;;;;5013570;28;20203;-71
2022/11/29 04:41:33;;;;;;;0.10;0.10;;;4.10;99.90;2.80;96754.00;;;;5026255;28;20321;-72
2022/11/29 04:44:32;;;;;;;0.10;0.10;;;4.10;99.90;2.80;96746.00;;;;5028789;28;20231;-72
2022/11/29 04:47:24;;;;;;;0.10;0.10;;;4.10;99.90;2.80;96756.00;;;;5030432;28;20272;-72
2022/11/29 04:50:40;;;;;;;0.10;0.10;;;4.10;99.90;2.90;96741.00;;;;5024973;28;20203;-71
2022/11/29 04:53:43;;;;;;;0.10;0.10;;;4.20;99.90;2.90;96732.00;;;;5020753;28;20254;-71
2022/11/29 04:56:23;;;;;;;0.10;0.10;;;4.10;99.90;2.80;96734.00;;;;5031823;28;20198;-71
2022/11/29 04:59:02;;;;;;;0.10;0.10;;;4.10;99.90;2.80;96732.00;;;;5024491;28;20740;-72
2022/11/29 05:01:48;;;;;;;0.10;0.10;;;4.10;99.90;2.80;96734.00;;;;5026025;28;20253;-72
2022/11/29 05:04:24;;;;;;;0.10;0.10;;;4.10;99.90;2.90;96759.00;;;;5023028;28;20221;-72
2022/11/29 05:07:03;;;;;;;0.10;0.10;;;4.20;99.90;2.80;96750.00;;;;5025022;28;20246;-72
2022/11/29 05:09:53;;;;;;;0.10;0.10;;;4.10;99.90;2.80;96760.00;;;;5016686;28;20196;-72
2022/11/29 05:12:34;;;;;;;0.10;0.10;;;4.10;99.90;2.90;96762.00;;;;5027308;28;20217;-72
2022/11/29 05:15:31;;;;;;;0.10;0.10;;;4.20;99.90;2.90;96767.00;;;;5029859;28;20223;-71
2022/11/29 05:18:14;;;;;;;0.10;0.10;;;4.10;99.90;2.80;96735.00;;;;5027902;28;20211;-72
2022/11/29 05:20:52;;;;;;;0.10;0.10;;;4.10;99.90;2.90;96746.00;;;;5027924;28;20199;-72
2022/11/29 05:23:39;;;;;;;0.10;0.10;;;4.20;99.90;2.90;96761.00;;;;5028782;28;20610;-71
2022/11/29 05:26:16;;;;;;;0.10;0.10;;;4.20;99.90;2.90;96775.00;;;;5030850;28;20199;-72
2022/11/29 05:28:59;;;;;;;0.10;0.10;;;4.20;99.90;2.90;96768.00;;;;5030272;28;20203;-72
2022/11/29 05:31:59;;;;;;;0.10;0.10;;;4.10;99.90;2.80;96760.00;;;;5012398;28;20200;-73
2022/11/29 05:34:45;;;;;;;0.10;0.10;;;4.10;99.90;2.80;96769.00;;;;5014495;28;20224;-73
2022/11/29 05:37:29;;;;;;;0.10;0.10;;;4.10;99.90;2.80;96764.00;;;;5030530;28;20207;-73
2022/11/29 05:40:23;;;;;;;0.10;0.10;;;4.10;99.90;2.70;96763.00;;;;5025957;28;20189;-73
2022/11/29 05:43:11;;;;;;;0.10;0.10;;;4.10;99.90;2.80;96762.00;;;;5031992;28;20257;-72
2022/11/29 05:45:52;;;;;;;0.10;0.10;;;4.10;99.90;2.80;96763.00;;;;5026051;28;20195;-71
2022/11/29 05:48:34;;;;;;;0.10;0.10;;;4.10;99.90;2.80;96782.00;;;;5018627;28;20219;-72
2022/11/29 05:51:20;;;;;;;0.10;0.10;;;4.10;99.90;2.70;96774.00;;;;5030932;28;20191;-73
2022/11/29 05:54:05;;;;;;;0.10;0.10;;;4.00;99.90;2.80;96781.00;;;;5019007;28;20203;-72
2022/11/29 05:56:48;;;;;;;0.10;0.10;;;4.10;99.90;2.70;96791.00;;;;5030834;28;20269;-72
2022/11/29 05:59:21;;;;;;;0.10;0.10;;;4.00;99.90;2.70;96771.00;;;;5026694;28;20192;-72
2022/11/29 06:02:04;;;;;;;0.10;0.10;;;4.00;99.90;2.70;96768.00;;;;5021094;28;20211;-72
2022/11/29 06:05:02;;;;;;;0.10;0.10;;;4.00;99.90;2.70;96703.00;;;;5023883;28;20569;-73
2022/11/29 06:07:43;;;;;;;0.10;0.10;;;4.00;99.90;2.70;96770.00;;;;5026532;28;20215;-72
2022/11/29 06:10:16;;;;;;;0.10;0.10;;;4.00;99.90;2.70;96765.00;;;;5038903;28;20277;-72
2022/11/29 06:13:05;;;;;;;0.10;0.10;;;4.00;99.90;2.70;96786.00;;;;5029619;28;20698;-73
2022/11/29 06:16:03;;;;;;;0.10;0.10;;;4.00;99.90;2.70;96794.00;;;;5028610;28;20211;-74
2022/11/29 06:19:17;;;;;;;0.10;0.10;;;4.00;99.90;2.70;96777.00;;;;5028471;28;20234;-74
2022/11/29 06:22:01;;;;;;;0.10;0.10;;;4.00;99.90;2.80;96786.00;;;;5022926;28;20234;-72
2022/11/29 06:24:49;;;;;;;0.10;0.10;;;4.10;99.90;2.80;96782.00;;;;5027393;28;20227;-72
2022/11/29 06:27:38;;;;;;;0.10;0.10;;;4.10;99.90;2.80;96788.00;;;;5030876;28;20273;-72
2022/11/29 06:30:11;;;;;;;0.10;0.10;;;4.00;99.90;2.70;96790.00;;;;5020060;28;20232;-72
2022/11/29 06:32:51;;;;;;;0.10;0.10;;;4.00;99.90;2.70;96795.00;;;;5021371;28;20214;-73
2022/11/29 06:35:42;;;;;;;0.10;0.10;;;4.00;99.90;2.70;96765.00;;;;5012542;28;20191;-73
2022/11/29 06:38:21;;;;;;;0.10;0.10;;;4.10;99.90;2.70;96797.00;;;;5017250;28;20225;-73
2022/11/29 06:40:50;;;;;;;0.08;0.08;;;4.10;99.90;2.80;96802.00;;;;5021887;28;20716;-72
2022/11/29 06:43:19;;;;;;;0.10;0.10;;;4.00;99.90;2.80;96799.00;;;;5030119;28;20218;-72
2022/11/29 06:45:52;;;;;;;0.10;0.10;;;4.10;99.90;2.80;96799.00;;;;5030745;28;20199;-72
2022/11/29 06:48:26;;;;;;;0.10;0.10;;;4.10;99.90;2.80;96800.00;;;;5018959;28;20223;-72
2022/11/29 06:51:07;;;;;;;0.10;0.10;;;4.10;99.90;2.80;96804.00;;;;5011992;28;20744;-74
2022/11/29 06:53:47;;;;;;;0.10;0.10;;;4.10;99.90;2.80;96801.00;;;;5011312;28;20215;-71
2022/11/29 06:56:26;;;;;;;0.10;0.10;;;4.10;99.90;2.90;96802.00;;;;5011819;28;20196;-72
2022/11/29 06:59:08;;;;;;;0.10;0.10;;;4.20;99.90;2.90;96802.00;;;;5011722;28;20199;-71
2022/11/29 07:01:45;;;;;;;0.10;0.10;;;4.10;99.90;2.90;96814.00;;;;5011775;28;20672;-73
2022/11/29 07:04:47;;;;;;;0.10;0.10;;;4.20;99.90;2.90;96814.00;;;;5011505;28;20219;-74
2022/11/29 07:07:22;;;;;;;0.10;0.10;;;4.20;99.90;2.90;96817.00;;;;5015413;28;20589;-73
2022/11/29 07:09:55;;;;;;;0.10;0.10;;;4.20;99.90;2.90;96835.00;;;;5015902;28;20275;-73
2022/11/29 07:12:24;;;;;;;0.10;0.10;;;4.20;99.90;2.90;96829.00;;;;5015117;28;20195;-73
2022/11/29 07:14:53;;;;;;;0.10;0.10;;;4.20;99.90;3.00;96822.00;;;;5014841;28;20220;-75
2022/11/29 07:17:39;;;;;;;0.10;0.10;;;4.20;99.90;3.00;96817.00;;;;5014960;28;20192;-75
2022/11/29 07:20:18;;;;;;;0.10;0.10;;;4.20;99.90;3.00;96829.00;;;;5014856;28;20192;-75
2022/11/29 07:23:07;;;;;;;0.10;0.10;;;4.20;99.90;3.00;96831.00;;;;5014826;28;20200;-76
2022/11/29 07:25:50;;;;;;;0.10;0.10;;;4.30;99.90;3.00;96832.00;;;;5029018;28;20194;-76
2022/11/29 07:28:39;;;;;;;0.10;0.10;;;4.30;99.90;3.00;96839.00;;;;5033186;28;20817;-76
2022/11/29 07:31:20;;;;;;;0.10;0.10;;;4.30;99.90;3.10;96834.00;;;;5032459;28;20247;-76
2022/11/29 07:33:58;;;;;;;0.10;0.10;;;4.30;99.90;3.00;96837.00;;;;5017142;28;20760;-75
2022/11/29 07:36:45;;;;;;;0.10;0.10;;;4.30;99.90;3.10;96851.00;;;;5016436;28;20188;-75
2022/11/29 07:39:28;;;;;;;0.10;0.10;;;4.40;99.90;3.20;96946.00;;;;5014029;28;20200;-76
2022/11/29 07:42:08;;;;;;;0.08;0.08;;;4.40;99.90;3.10;96883.00;;;;5034725;28;20257;-75
2022/11/29 07:44:49;;;;;;;0.10;0.10;;;4.40;99.90;3.20;96917.00;;;;5030727;28;20218;-75
2022/11/29 07:47:17;;;;;;;0.10;0.10;;;4.40;99.90;3.20;96885.00;;;;5015078;28;20196;-75
2022/11/29 07:49:45;;;;;;;0.10;0.10;;;4.40;99.90;3.20;96875.00;;;;5021023;28;20188;-73
2022/11/29 07:52:16;;;;;;;0.10;0.10;;;4.50;99.90;3.20;96870.00;;;;5033786;28;20580;-76
2022/11/29 07:54:45;;;;;;;0.10;0.10;;;4.40;99.90;3.30;96898.00;;;;5033530;28;20230;-74
2022/11/29 07:57:14;;;;;;;0.10;0.10;;;4.50;99.90;3.30;96904.00;;;;5033900;28;20196;-75
2022/11/29 07:59:42;;;;;;;0.10;0.10;;;4.50;99.90;3.20;96909.00;;;;5033343;28;20187;-74
2022/11/29 08:02:11;;;;;;;0.10;0.10;;;4.50;99.90;3.30;96920.00;;;;5033790;28;20269;-74
2022/11/29 08:04:43;;;;;;;0.10;0.10;;;4.50;99.90;3.20;96848.00;;;;5034126;28;20219;-74
2022/11/29 08:07:12;;;;;;;0.10;0.10;;;4.50;99.90;3.30;96904.00;;;;5033483;28;20670;-74
2022/11/29 08:09:40;;;;;;;0.10;0.10;;;4.50;99.90;3.30;96918.00;;;;5033534;28;20237;-74
2022/11/29 08:12:09;;;;;;;0.10;0.10;;;4.50;99.90;3.40;96924.00;;;;5033562;28;20270;-73
2022/11/29 08:14:37;;;;;;;0.10;0.10;;;4.60;99.90;3.40;96889.00;;;;5033427;28;20211;-74
2022/11/29 08:17:06;;;;;;;0.10;0.10;;;4.60;99.90;3.50;96900.00;;;;5032208;28;20245;-74
2022/11/29 08:19:34;;;;;;;0.10;0.10;;;4.70;99.90;3.40;96923.00;;;;5033125;28;20244;-73
2022/11/29 08:22:02;;;;;;;0.10;0.10;;;4.60;99.90;3.50;96931.00;;;;5033286;28;20733;-74
2022/11/29 08:24:30;;;;;;;0.10;0.10;;;4.70;99.90;3.40;96882.00;;;;5033069;28;20223;-73
2022/11/29 08:26:58;;;;;;;0.10;0.10;;;4.60;99.90;3.30;96883.00;;;;5033543;28;20191;-74
2022/11/29 08:29:27;;;;;;;0.00;0.00;;;4.60;99.90;3.40;96899.00;;;;5032771;28;20222;-74
2022/11/29 08:31:55;;;;;;;0.10;0.10;;;4.70;99.90;3.40;96898.00;;;;5033233;28;20191;-73
2022/11/29 08:34:25;;;;;;;0.10;0.10;;;4.60;99.90;3.10;96917.00;;;;5033166;28;20702;-73
2022/11/29 08:36:55;;;;;;;0.10;0.10;;;4.70;99.90;3.40;96909.00;;;;5032703;28;20663;-73
2022/11/29 08:39:24;;;;;;;0.10;0.10;;;4.70;99.90;3.40;96911.00;;;;5032797;28;20206;-73
2022/11/29 08:41:52;;;;;;;0.10;0.10;;;4.70;99.90;3.40;96936.00;;;;5032502;28;20261;-73
2022/11/29 08:44:21;;;;;;;0.10;0.10;;;4.70;99.90;3.50;96935.00;;;;5032676;28;20740;-74
2022/11/29 08:49:59;;;;;;;0.10;0.10;;;4.70;99.90;3.60;96923.00;;;;5032210;28;20214;-73
2022/11/29 08:55:10;;;;;;;0.10;0.10;;;4.70;99.90;3.50;96930.00;;;;5032973;28;20706;-74
2022/11/29 08:57:38;;;;;;;0.10;0.10;;;4.70;99.90;3.50;96857.00;;;;5031502;28;20195;-74
2022/11/29 09:00:10;;;;;;;0.10;0.10;;;4.80;99.90;3.60;96916.00;;;;5032567;28;20713;-73
2022/11/29 09:02:39;;;;;;;0.10;0.10;;;4.80;99.90;3.60;96945.00;;;;5032402;28;20199;-74
2022/11/29 09:05:11;;;;;;;0.10;0.10;;;4.80;99.90;3.60;96906.00;;;;5032730;28;20215;-74
2022/11/29 09:07:39;;;;;;;0.10;0.10;;;4.80;99.90;3.50;96945.00;;;;5032947;28;20183;-74
2022/11/29 09:10:10;;;;;;;0.10;0.10;;;4.70;99.90;3.60;96933.00;;;;5032911;28;20184;-74
2022/11/29 09:12:41;;;;;;;0.10;0.10;;;4.80;99.90;3.60;96923.00;;;;5033515;28;20195;-74
2022/11/29 09:15:11;;;;;;;0.10;0.10;;;4.80;99.90;3.60;96923.00;;;;5034111;28;20218;-74
2022/11/29 09:17:40;;;;;;;0.10;0.10;;;4.80;99.90;3.60;96926.00;;;;5032597;28;20195;-73
2022/11/29 09:20:09;;;;;;;0.10;0.10;;;4.80;99.90;3.70;96924.00;;;;5032572;28;20203;-74
2022/11/29 09:22:38;;;;;;;0.10;0.10;;;4.90;99.90;3.70;96934.00;;;;5031966;28;20202;-73
2022/11/29 09:25:07;;;;;;;0.10;0.10;;;4.90;99.90;3.70;96926.00;;;;5032025;28;20215;-73
2022/11/29 09:27:35;;;;;;;0.10;0.10;;;4.90;99.90;3.70;96948.00;;;;5031845;28;20253;-73
2022/11/29 09:30:04;;;;;;;0.10;0.10;;;4.90;99.90;3.80;96930.00;;;;5031622;28;20214;-73
2022/11/29 09:32:34;;;;;;;0.10;0.10;;;5.00;99.90;3.80;96955.00;;;;5032100;28;20721;-73
2022/11/29 09:35:04;;;;;;;0.10;0.10;;;4.90;99.90;3.80;96955.00;;;;5031841;28;20771;-73
2022/11/29 09:37:32;;;;;;;0.10;0.10;;;5.00;99.90;3.80;96940.00;;;;5031662;28;20206;-74
2022/11/29 09:40:00;;;;;;;0.10;0.10;;;5.00;99.90;3.80;96971.00;;;;5014206;28;20200;-73
2022/11/29 09:42:46;;;;;;;0.10;0.10;;;5.00;99.90;3.90;96938.00;;;;5033923;28;20194;-73
2022/11/29 09:45:20;;;;;;;0.10;0.10;;;5.10;99.90;3.90;96942.00;;;;5033676;28;20265;-73
2022/11/29 09:48:20;;;;;;;0.10;0.10;;;5.10;99.90;3.90;96953.00;;;;5031454;28;20202;-76
2022/11/29 09:51:00;;;;;;;0.10;0.10;;;5.10;99.90;4.00;96975.00;;;;5031621;28;20187;-76
2022/11/29 09:53:50;;;;;;;0.10;0.10;;;5.10;99.90;4.00;96977.00;;;;5031795;28;20576;-75
2022/11/29 09:56:28;;;;;;;0.10;0.10;;;5.20;99.90;4.10;96976.00;;;;5031777;28;20321;-75
2022/11/29 09:59:01;;;;;;;0.10;0.10;;;5.20;99.90;4.00;96958.00;;;;5031693;28;20195;-73
2022/11/29 10:01:37;;;;;;;0.10;0.10;;;5.20;99.90;4.10;96940.00;;;;5031778;28;20187;-74
2022/11/29 10:04:12;;;;;;;0.10;0.10;;;5.20;99.90;4.00;96949.00;;;;5031509;28;20218;-75
2022/11/29 10:06:48;;;;;;;0.10;0.10;;;5.20;99.90;4.00;96887.00;;;;5031910;28;20191;-75
2022/11/29 10:09:24;;;;;;;0.10;0.10;;;5.20;99.90;4.00;96951.00;;;;5032505;28;20226;-75
2022/11/29 10:12:12;;;;;;;0.10;0.10;;;5.20;99.90;4.00;96949.00;;;;5032344;28;20241;-75
2022/11/29 10:14:48;;;;;;;0.10;0.10;;;5.20;99.90;4.00;96945.00;;;;5031626;28;20567;-75
2022/11/29 10:17:34;;;;;;;0.10;0.10;;;5.20;99.90;4.00;96957.00;;;;5033949;28;20261;-75
2022/11/29 10:20:10;;;;;;;0.10;0.10;;;5.20;99.90;4.00;96952.00;;;;5033130;28;20245;-75
2022/11/29 10:22:48;;;;;;;0.10;0.10;;;5.20;99.90;4.10;96950.00;;;;5032733;28;20682;-75
2022/11/29 10:25:24;;;;;;;0.10;0.10;;;5.30;99.90;4.10;96947.00;;;;5032732;28;20198;-75
2022/11/29 10:27:53;;;;;;;0.10;0.10;;;5.30;99.90;4.10;96945.00;;;;5031086;28;20222;-73
2022/11/29 10:30:22;;;;;;;0.10;0.10;;;5.30;99.90;4.10;96958.00;;;;5031475;28;20226;-73
2022/11/29 10:32:56;;;;;;;0.10;0.10;;;5.30;99.90;4.20;96920.00;;;;5031492;28;20187;-73
2022/11/29 10:35:25;;;;;;;0.10;0.10;;;5.40;99.90;4.20;96985.00;;;;5031814;28;20195;-74
2022/11/29 10:38:00;;;;;;;0.10;0.10;;;5.40;99.90;4.30;96980.00;;;;5030826;28;20240;-74
2022/11/29 10:41:01;;;;;;;0.10;0.10;;;5.40;99.90;4.30;96984.00;;;;5032351;28;20214;-74
2022/11/29 10:43:30;;;;;;;0.10;0.10;;;5.40;99.90;4.30;96982.00;;;;5035240;28;20624;-74
2022/11/29 10:45:59;;;;;;;0.10;0.10;;;5.50;99.90;4.30;96976.00;;;;5035430;28;20215;-74
2022/11/29 10:48:32;;;;;;;0.10;0.10;;;5.50;99.90;4.30;96992.00;;;;5035338;28;20608;-74
2022/11/29 10:51:02;;;;;;;0.10;0.10;;;5.40;99.90;4.20;96976.00;;;;5035348;28;20195;-74
2022/11/29 10:53:37;;;;;;;0.10;0.10;;;5.40;99.90;4.20;96984.00;;;;5035136;28;20273;-74
2022/11/29 10:56:12;;;;;;;0.10;0.10;;;5.40;99.90;4.30;96987.00;;;;5026753;28;20249;-74
2022/11/29 10:58:56;;;;;;;0.10;0.10;;;5.40;99.90;4.30;96928.00;;;;5026252;28;20603;-74
2022/11/29 11:01:27;;;;;;;0.10;0.10;;;5.50;99.90;4.30;96945.00;;;;5034417;28;20195;-74
2022/11/29 11:03:59;;;;;;;0.10;0.10;;;5.40;99.90;4.30;96984.00;;;;5034447;28;20222;-74
2022/11/29 11:06:43;;;;;;;0.10;0.10;;;5.50;99.90;4.30;96971.00;;;;5034914;28;20222;-74
2022/11/29 11:09:22;;;;;;;0.10;0.10;;;5.50;99.90;4.40;96924.00;;;;5034559;28;20685;-74
2022/11/29 11:11:53;;;;;;;0.00;0.00;;;5.50;99.90;4.30;96966.00;;;;5034590;28;20604;-74
2022/11/29 11:14:26;;;;;;;0.10;0.10;;;5.50;99.90;4.00;96986.00;;;;5035295;28;20272;-74
2022/11/29 11:16:54;;;;;;;0.10;0.10;;;5.50;99.90;4.20;96960.00;;;;5036214;28;20187;-74
2022/11/29 11:19:29;;;;;;;0.05;0.05;;;5.40;99.90;4.20;96964.00;;;;5035053;28;20195;-74
2022/11/29 11:21:59;;;;;;;0.10;0.10;;;5.40;99.90;4.20;96967.00;;;;5023940;28;20236;-74
2022/11/29 11:24:32;;;;;;;0.10;0.10;;;5.40;99.90;4.30;96974.00;;;;5027530;28;20613;-74
2022/11/29 11:27:01;;;;;;;0.10;0.10;;;5.40;99.90;4.30;96935.00;;;;5034446;28;20202;-74
2022/11/29 11:29:37;;;;;;;0.00;0.00;;;5.40;99.90;4.30;97007.00;;;;5033972;28;20699;-74
2022/11/29 11:32:16;;;;;;;0.10;0.10;;;5.40;99.90;4.20;96979.00;;;;5034415;28;20197;-74
2022/11/29 11:34:52;;;;;;;0.10;0.10;;;5.40;99.90;4.20;96975.00;;;;5034154;28;20209;-74
2022/11/29 11:37:25;;;;;;;0.10;0.10;;;5.40;99.90;4.30;96981.00;;;;5034255;28;20198;-74
2022/11/29 11:39:57;;;;;;;0.10;0.10;;;5.50;99.90;4.30;96888.00;;;;5034009;28;20265;-74
2022/11/29 11:42:38;;;;;;;0.08;0.08;;;5.40;99.90;4.30;96968.00;;;;5034629;28;20191;-74
2022/11/29 11:45:31;;;;;;;0.10;0.10;;;5.40;99.90;4.30;96931.00;;;;5034097;28;20752;-74
2022/11/29 11:48:04;;;;;;;0.10;0.10;;;5.50;99.90;4.40;96980.00;;;;5034041;28;20198;-74
2022/11/29 11:50:37;;;;;;;0.08;0.08;;;5.50;99.90;4.30;96985.00;;;;5034250;28;20626;-74
2022/11/29 11:53:18;;;;;;;0.10;0.10;;;5.50;99.90;4.40;96986.00;;;;5033897;28;20604;-74
2022/11/29 11:56:01;;;;;;;0.10;0.10;;;5.60;99.90;4.40;96991.00;;;;5035068;28;20195;-74
2022/11/29 11:58:31;;;;;;;0.10;0.10;;;5.60;99.90;4.40;96998.00;;;;5034839;28;20234;-74
2022/11/29 12:01:14;;;;;;;0.10;0.10;;;5.60;99.90;4.40;96980.00;;;;5033677;28;20559;-74
2022/11/29 12:03:54;;;;;;;0.10;0.10;;;5.60;99.90;4.40;96976.00;;;;5033800;28;20218;-74
2022/11/29 12:06:46;;;;;;;0.10;0.10;;;5.50;99.90;4.40;96998.00;;;;5033939;28;20190;-74
2022/11/29 12:09:39;;;;;;;0.10;0.10;;;5.60;99.90;4.40;97016.00;;;;5033377;28;20597;-74
2022/11/29 12:12:15;;;;;;;0.10;0.10;;;5.60;99.90;4.40;97023.00;;;;5033304;28;20207;-74